sensor_id;sensor_type;location;lat;lon;timestamp;temperature;humidity
17333;DHT22;8784;50.94667800;7.08448400;2023-03-01T00:01:00;1.40;78.60
17333;DHT22;8784;50.94667800;7.08448400;2023-03-01T00:03:27;1.40;78.80
17333;DHT22;8784;50.94667800;7.08448400;2023-03-01T00:05:54;1.30;79.00
17333;DHT22;8784;50.94667800;7.08448400;2023-03-01T00:08:22;1.30;78.90
17333;DHT22;8784;50.94667800;7.08448400;2023-03-01T00:10:49;1.30;79.00
17333;DHT22;8784;50.94667800;7.08448400;2023-03-01T00:13:16;1.30;79.00
17333;DHT22;8784;50.94667800;7.08448400;2023-03-01T00:15:43;1.20;79.00
17333;DHT22;8784;50.94667800;7.08448400;2023-03-01T00:18:10;1.20;79.30
17333;DHT22;8784;50.94667800;7.08448400;2023-03-01T00:20:36;1.20;79.50
17333;DHT22;8784;50.94667800;7.08448400;2023-03-01T00:23:03;1.20;79.60
17333;DHT22;8784;50.94667800;7.08448400;2023-03-01T00:25:31;1.20;79.70
17333;DHT22;8784;50.94667800;7.08448400;2023-03-01T00:27:58;1.20;79.60
17333;DHT22;8784;50.94667800;7.08448400;2023-03-01T00:30:25;1.20;79.60
17333;DHT22;8784;50.94667800;7.08448400;2023-03-01T00:32:52;1.10;79.70
17333;DHT22;8784;50.94667800;7.08448400;2023-03-01T00:35:19;1.20;79.70
17333;DHT22;8784;50.94667800;7.08448400;2023-03-01T00:37:46;1.20;80.00
17333;DHT22;8784;50.94667800;7.08448400;2023-03-01T00:40:13;1.20;80.00
17333;DHT22;8784;50.94667800;7.08448400;2023-03-01T00:42:43;1.10;80.00
17333;DHT22;8784;50.94667800;7.08448400;2023-03-01T00:45:10;1.10;80.00
17333;DHT22;8784;50.94667800;7.08448400;2023-03-01T00:47:38;1.10;80.10
17333;DHT22;8784;50.94667800;7.08448400;2023-03-01T00:50:06;1.20;80.30
17333;DHT22;8784;50.94667800;7.08448400;2023-03-01T00:52:33;1.10;80.30
17333;DHT22;8784;50.94667800;7.08448400;2023-03-01T00:55:00;1.20;81.00
17333;DHT22;8784;50.94667800;7.08448400;2023-03-01T00:57:26;1.10;80.30
17333;DHT22;8784;50.94667800;7.08448400;2023-03-01T00:59:55;1.20;80.40
17333;DHT22;8784;50.94667800;7.08448400;2023-03-01T01:02:22;1.20;80.40
17333;DHT22;8784;50.94667800;7.08448400;2023-03-01T01:04:49;1.20;80.50
17333;DHT22;8784;50.94667800;7.08448400;2023-03-01T01:07:16;1.20;80.50
17333;DHT22;8784;50.94667800;7.08448400;2023-03-01T01:09:43;1.20;80.60
17333;DHT22;8784;50.94667800;7.08448400;2023-03-01T01:12:10;1.20;80.70
17333;DHT22;8784;50.94667800;7.08448400;2023-03-01T01:14:37;1.20;80.80
17333;DHT22;8784;50.94667800;7.08448400;2023-03-01T01:17:05;1.20;80.80
17333;DHT22;8784;50.94667800;7.08448400;2023-03-01T01:19:32;1.20;80.80
17333;DHT22;8784;50.94667800;7.08448400;2023-03-01T01:21:59;1.20;80.70
17333;DHT22;8784;50.94667800;7.08448400;2023-03-01T01:24:26;1.20;80.90
17333;DHT22;8784;50.94667800;7.08448400;2023-03-01T01:26:53;1.20;80.90
17333;DHT22;8784;50.94667800;7.08448400;2023-03-01T01:29:19;1.10;80.90
17333;DHT22;8784;50.94667800;7.08448400;2023-03-01T01:31:46;1.10;81.00
17333;DHT22;8784;50.94667800;7.08448400;2023-03-01T01:34:16;1.10;81.10
17333;DHT22;8784;50.94667800;7.08448400;2023-03-01T01:36:44;1.00;81.10
17333;DHT22;8784;50.94667800;7.08448400;2023-03-01T01:39:13;1.00;81.20
17333;DHT22;8784;50.94667800;7.08448400;2023-03-01T01:41:41;0.90;82.00
17333;DHT22;8784;50.94667800;7.08448400;2023-03-01T01:44:12;0.90;81.40
17333;DHT22;8784;50.94667800;7.08448400;2023-03-01T01:46:41;0.80;81.40
17333;DHT22;8784;50.94667800;7.08448400;2023-03-01T01:49:19;0.70;81.50
17333;DHT22;8784;50.94667800;7.08448400;2023-03-01T01:51:55;0.70;81.70
17333;DHT22;8784;50.94667800;7.08448400;2023-03-01T01:54:26;0.70;81.90
17333;DHT22;8784;50.94667800;7.08448400;2023-03-01T01:56:57;0.70;81.90
17333;DHT22;8784;50.94667800;7.08448400;2023-03-01T01:59:27;0.60;82.00
17333;DHT22;8784;50.94667800;7.08448400;2023-03-01T02:01:55;0.70;82.40
17333;DHT22;8784;50.94667800;7.08448400;2023-03-01T02:04:25;0.70;82.30
17333;DHT22;8784;50.94667800;7.08448400;2023-03-01T02:06:59;0.60;82.20
17333;DHT22;8784;50.94667800;7.08448400;2023-03-01T02:09:28;0.70;82.30
17333;DHT22;8784;50.94667800;7.08448400;2023-03-01T02:11:57;0.70;82.40
17333;DHT22;8784;50.94667800;7.08448400;2023-03-01T02:14:25;0.70;82.40
17333;DHT22;8784;50.94667800;7.08448400;2023-03-01T02:16:52;0.70;82.40
17333;DHT22;8784;50.94667800;7.08448400;2023-03-01T02:19:29;0.70;82.40
17333;DHT22;8784;50.94667800;7.08448400;2023-03-01T02:22:03;0.70;82.50
17333;DHT22;8784;50.94667800;7.08448400;2023-03-01T02:24:40;0.70;82.50
17333;DHT22;8784;50.94667800;7.08448400;2023-03-01T02:27:10;0.70;82.50
17333;DHT22;8784;50.94667800;7.08448400;2023-03-01T02:29:39;0.70;82.60
17333;DHT22;8784;50.94667800;7.08448400;2023-03-01T02:32:09;0.70;82.80
17333;DHT22;8784;50.94667800;7.08448400;2023-03-01T02:34:38;0.60;82.70
17333;DHT22;8784;50.94667800;7.08448400;2023-03-01T02:37:10;0.60;82.80
17333;DHT22;8784;50.94667800;7.08448400;2023-03-01T02:39:40;0.50;82.80
17333;DHT22;8784;50.94667800;7.08448400;2023-03-01T02:42:12;0.50;82.90
17333;DHT22;8784;50.94667800;7.08448400;2023-03-01T02:44:40;0.40;83.00
17333;DHT22;8784;50.94667800;7.08448400;2023-03-01T02:47:07;0.40;83.00
17333;DHT22;8784;50.94667800;7.08448400;2023-03-01T02:49:36;0.40;83.20
17333;DHT22;8784;50.94667800;7.08448400;2023-03-01T02:52:19;0.30;83.30
17333;DHT22;8784;50.94667800;7.08448400;2023-03-01T02:54:50;0.30;83.50
17333;DHT22;8784;50.94667800;7.08448400;2023-03-01T02:57:19;0.20;83.40
17333;DHT22;8784;50.94667800;7.08448400;2023-03-01T02:59:49;0.20;83.50
17333;DHT22;8784;50.94667800;7.08448400;2023-03-01T03:02:23;0.20;83.60
17333;DHT22;8784;50.94667800;7.08448400;2023-03-01T03:05:06;0.20;83.70
17333;DHT22;8784;50.94667800;7.08448400;2023-03-01T03:07:34;0.10;83.80
17333;DHT22;8784;50.94667800;7.08448400;2023-03-01T03:10:03;0.10;83.90
17333;DHT22;8784;50.94667800;7.08448400;2023-03-01T03:12:30;0.00;83.80
17333;DHT22;8784;50.94667800;7.08448400;2023-03-01T03:14:59;0.00;84.00
17333;DHT22;8784;50.94667800;7.08448400;2023-03-01T03:17:26;0.00;84.10
17333;DHT22;8784;50.94667800;7.08448400;2023-03-01T03:19:52;0.00;84.10
17333;DHT22;8784;50.94667800;7.08448400;2023-03-01T03:22:19;0.00;84.20
17333;DHT22;8784;50.94667800;7.08448400;2023-03-01T03:24:46;0.00;84.30
17333;DHT22;8784;50.94667800;7.08448400;2023-03-01T03:27:13;-0.10;84.40
17333;DHT22;8784;50.94667800;7.08448400;2023-03-01T03:29:40;-0.10;84.40
17333;DHT22;8784;50.94667800;7.08448400;2023-03-01T03:32:08;-0.10;84.50
17333;DHT22;8784;50.94667800;7.08448400;2023-03-01T03:34:35;-0.10;84.60
17333;DHT22;8784;50.94667800;7.08448400;2023-03-01T03:37:02;-0.10;84.80
17333;DHT22;8784;50.94667800;7.08448400;2023-03-01T03:39:28;-0.10;84.80
17333;DHT22;8784;50.94667800;7.08448400;2023-03-01T03:42:00;-0.20;84.80
17333;DHT22;8784;50.94667800;7.08448400;2023-03-01T03:44:27;-0.20;85.00
17333;DHT22;8784;50.94667800;7.08448400;2023-03-01T03:46:54;-0.20;85.00
17333;DHT22;8784;50.94667800;7.08448400;2023-03-01T03:49:23;-0.20;85.00
17333;DHT22;8784;50.94667800;7.08448400;2023-03-01T03:51:49;-0.30;85.00
17333;DHT22;8784;50.94667800;7.08448400;2023-03-01T03:54:16;-0.30;85.20
17333;DHT22;8784;50.94667800;7.08448400;2023-03-01T03:56:43;-0.30;85.30
17333;DHT22;8784;50.94667800;7.08448400;2023-03-01T03:59:10;-0.30;85.40
17333;DHT22;8784;50.94667800;7.08448400;2023-03-01T04:01:37;-0.30;85.50
17333;DHT22;8784;50.94667800;7.08448400;2023-03-01T04:04:04;-0.40;85.50
17333;DHT22;8784;50.94667800;7.08448400;2023-03-01T04:06:34;-0.40;85.60
17333;DHT22;8784;50.94667800;7.08448400;2023-03-01T04:09:01;-0.40;85.70
17333;DHT22;8784;50.94667800;7.08448400;2023-03-01T04:11:28;-0.40;85.80
17333;DHT22;8784;50.94667800;7.08448400;2023-03-01T04:13:57;-0.50;85.80
17333;DHT22;8784;50.94667800;7.08448400;2023-03-01T04:16:24;-0.40;85.90
17333;DHT22;8784;50.94667800;7.08448400;2023-03-01T04:18:51;-0.50;85.90
17333;DHT22;8784;50.94667800;7.08448400;2023-03-01T04:21:19;-0.50;86.00
17333;DHT22;8784;50.94667800;7.08448400;2023-03-01T04:23:47;-0.60;86.00
17333;DHT22;8784;50.94667800;7.08448400;2023-03-01T04:26:18;-0.60;86.00
17333;DHT22;8784;50.94667800;7.08448400;2023-03-01T04:28:45;-0.60;86.30
17333;DHT22;8784;50.94667800;7.08448400;2023-03-01T04:31:15;-0.70;86.50
17333;DHT22;8784;50.94667800;7.08448400;2023-03-01T04:33:44;-0.70;86.50
17333;DHT22;8784;50.94667800;7.08448400;2023-03-01T04:36:12;-0.70;86.60
17333;DHT22;8784;50.94667800;7.08448400;2023-03-01T04:38:40;-0.70;86.60
17333;DHT22;8784;50.94667800;7.08448400;2023-03-01T04:41:16;-0.80;86.70
17333;DHT22;8784;50.94667800;7.08448400;2023-03-01T04:43:43;-0.80;86.70
17333;DHT22;8784;50.94667800;7.08448400;2023-03-01T04:46:12;-0.80;86.80
17333;DHT22;8784;50.94667800;7.08448400;2023-03-01T04:48:41;-0.80;86.90
17333;DHT22;8784;50.94667800;7.08448400;2023-03-01T04:51:08;-0.80;87.10
17333;DHT22;8784;50.94667800;7.08448400;2023-03-01T04:53:39;-0.80;87.10
17333;DHT22;8784;50.94667800;7.08448400;2023-03-01T04:56:06;-0.90;87.20
17333;DHT22;8784;50.94667800;7.08448400;2023-03-01T04:58:34;-0.90;87.30
17333;DHT22;8784;50.94667800;7.08448400;2023-03-01T05:01:07;-1.00;87.30
17333;DHT22;8784;50.94667800;7.08448400;2023-03-01T05:03:40;-0.90;87.50
17333;DHT22;8784;50.94667800;7.08448400;2023-03-01T05:06:09;-1.00;87.50
17333;DHT22;8784;50.94667800;7.08448400;2023-03-01T05:08:40;-1.00;87.60
17333;DHT22;8784;50.94667800;7.08448400;2023-03-01T05:11:07;-1.00;87.70
17333;DHT22;8784;50.94667800;7.08448400;2023-03-01T05:13:36;-1.00;87.80
17333;DHT22;8784;50.94667800;7.08448400;2023-03-01T05:16:05;-1.00;88.00
17333;DHT22;8784;50.94667800;7.08448400;2023-03-01T05:18:33;-1.00;88.10
17333;DHT22;8784;50.94667800;7.08448400;2023-03-01T05:21:04;-1.00;88.10
17333;DHT22;8784;50.94667800;7.08448400;2023-03-01T05:23:31;-1.00;88.30
17333;DHT22;8784;50.94667800;7.08448400;2023-03-01T05:25:58;-1.00;88.30
17333;DHT22;8784;50.94667800;7.08448400;2023-03-01T05:28:26;-1.10;88.30
17333;DHT22;8784;50.94667800;7.08448400;2023-03-01T05:30:57;-1.10;88.30
17333;DHT22;8784;50.94667800;7.08448400;2023-03-01T05:33:24;-1.10;88.50
17333;DHT22;8784;50.94667800;7.08448400;2023-03-01T05:35:52;-1.10;88.60
17333;DHT22;8784;50.94667800;7.08448400;2023-03-01T05:38:20;-1.10;88.70
17333;DHT22;8784;50.94667800;7.08448400;2023-03-01T05:40:48;-1.10;88.80
17333;DHT22;8784;50.94667800;7.08448400;2023-03-01T05:43:16;-1.20;88.90
17333;DHT22;8784;50.94667800;7.08448400;2023-03-01T05:45:44;-1.20;89.00
17333;DHT22;8784;50.94667800;7.08448400;2023-03-01T05:48:13;-1.20;89.10
17333;DHT22;8784;50.94667800;7.08448400;2023-03-01T05:50:46;-1.20;89.20
17333;DHT22;8784;50.94667800;7.08448400;2023-03-01T05:53:14;-1.20;89.40
17333;DHT22;8784;50.94667800;7.08448400;2023-03-01T05:55:42;-1.30;89.50
17333;DHT22;8784;50.94667800;7.08448400;2023-03-01T05:58:11;-1.30;89.70
17333;DHT22;8784;50.94667800;7.08448400;2023-03-01T06:00:39;-1.30;89.90
17333;DHT22;8784;50.94667800;7.08448400;2023-03-01T06:03:08;-1.30;90.00
17333;DHT22;8784;50.94667800;7.08448400;2023-03-01T06:05:37;-1.30;90.00
17333;DHT22;8784;50.94667800;7.08448400;2023-03-01T06:08:05;-1.30;90.10
17333;DHT22;8784;50.94667800;7.08448400;2023-03-01T06:10:32;-1.30;90.10
17333;DHT22;8784;50.94667800;7.08448400;2023-03-01T06:12:59;-1.30;90.10
17333;DHT22;8784;50.94667800;7.08448400;2023-03-01T06:15:26;-1.30;90.20
17333;DHT22;8784;50.94667800;7.08448400;2023-03-01T06:17:54;-1.40;90.20
17333;DHT22;8784;50.94667800;7.08448400;2023-03-01T06:20:24;-1.40;90.30
17333;DHT22;8784;50.94667800;7.08448400;2023-03-01T06:22:52;-1.40;90.30
17333;DHT22;8784;50.94667800;7.08448400;2023-03-01T06:25:23;-1.40;90.40
17333;DHT22;8784;50.94667800;7.08448400;2023-03-01T06:27:50;-1.40;90.50
17333;DHT22;8784;50.94667800;7.08448400;2023-03-01T06:30:20;-1.30;90.60
17333;DHT22;8784;50.94667800;7.08448400;2023-03-01T06:32:47;-1.30;90.50
17333;DHT22;8784;50.94667800;7.08448400;2023-03-01T06:35:15;-1.30;90.60
17333;DHT22;8784;50.94667800;7.08448400;2023-03-01T06:37:43;-1.30;90.60
17333;DHT22;8784;50.94667800;7.08448400;2023-03-01T06:40:13;-1.30;90.70
17333;DHT22;8784;50.94667800;7.08448400;2023-03-01T06:42:42;-1.30;90.80
17333;DHT22;8784;50.94667800;7.08448400;2023-03-01T06:45:10;-1.30;90.80
17333;DHT22;8784;50.94667800;7.08448400;2023-03-01T06:47:37;-1.20;90.90
17333;DHT22;8784;50.94667800;7.08448400;2023-03-01T06:50:04;-1.20;90.90
17333;DHT22;8784;50.94667800;7.08448400;2023-03-01T06:52:31;-1.20;90.90
17333;DHT22;8784;50.94667800;7.08448400;2023-03-01T06:54:59;-1.10;91.00
17333;DHT22;8784;50.94667800;7.08448400;2023-03-01T06:57:27;-1.00;91.00
17333;DHT22;8784;50.94667800;7.08448400;2023-03-01T06:59:54;-1.00;91.00
17333;DHT22;8784;50.94667800;7.08448400;2023-03-01T07:02:21;-0.90;91.10
17333;DHT22;8784;50.94667800;7.08448400;2023-03-01T07:04:49;-0.80;91.10
17333;DHT22;8784;50.94667800;7.08448400;2023-03-01T07:07:16;-0.70;91.20
17333;DHT22;8784;50.94667800;7.08448400;2023-03-01T07:09:43;-0.60;91.10
17333;DHT22;8784;50.94667800;7.08448400;2023-03-01T07:12:10;-0.50;91.20
17333;DHT22;8784;50.94667800;7.08448400;2023-03-01T07:14:38;-0.30;91.20
17333;DHT22;8784;50.94667800;7.08448400;2023-03-01T07:17:05;-0.30;91.20
17333;DHT22;8784;50.94667800;7.08448400;2023-03-01T07:19:33;-0.20;91.20
17333;DHT22;8784;50.94667800;7.08448400;2023-03-01T07:22:00;0.00;91.30
17333;DHT22;8784;50.94667800;7.08448400;2023-03-01T07:24:27;0.10;91.30
17333;DHT22;8784;50.94667800;7.08448400;2023-03-01T07:26:53;0.20;91.30
17333;DHT22;8784;50.94667800;7.08448400;2023-03-01T07:29:21;0.30;91.30
17333;DHT22;8784;50.94667800;7.08448400;2023-03-01T07:31:49;0.50;91.30
17333;DHT22;8784;50.94667800;7.08448400;2023-03-01T07:34:16;0.60;91.20
17333;DHT22;8784;50.94667800;7.08448400;2023-03-01T07:36:43;0.70;91.20
17333;DHT22;8784;50.94667800;7.08448400;2023-03-01T07:39:11;0.80;91.20
17333;DHT22;8784;50.94667800;7.08448400;2023-03-01T07:41:38;1.00;91.10
17333;DHT22;8784;50.94667800;7.08448400;2023-03-01T07:44:05;1.10;91.00
17333;DHT22;8784;50.94667800;7.08448400;2023-03-01T07:46:32;1.30;91.00
17333;DHT22;8784;50.94667800;7.08448400;2023-03-01T07:49:01;1.40;91.00
17333;DHT22;8784;50.94667800;7.08448400;2023-03-01T07:51:28;1.50;90.90
17333;DHT22;8784;50.94667800;7.08448400;2023-03-01T07:53:55;1.50;90.90
17333;DHT22;8784;50.94667800;7.08448400;2023-03-01T07:56:22;1.70;90.90
17333;DHT22;8784;50.94667800;7.08448400;2023-03-01T07:58:49;1.90;90.90
17333;DHT22;8784;50.94667800;7.08448400;2023-03-01T08:01:18;2.00;90.80
17333;DHT22;8784;50.94667800;7.08448400;2023-03-01T08:03:46;2.10;90.70
17333;DHT22;8784;50.94667800;7.08448400;2023-03-01T08:06:16;2.20;90.70
17333;DHT22;8784;50.94667800;7.08448400;2023-03-01T08:08:43;2.30;90.60
17333;DHT22;8784;50.94667800;7.08448400;2023-03-01T08:11:12;2.40;90.60
17333;DHT22;8784;50.94667800;7.08448400;2023-03-01T08:13:39;2.60;90.50
17333;DHT22;8784;50.94667800;7.08448400;2023-03-01T08:16:08;2.80;90.30
17333;DHT22;8784;50.94667800;7.08448400;2023-03-01T08:18:36;3.00;90.20
17333;DHT22;8784;50.94667800;7.08448400;2023-03-01T08:21:04;3.30;90.10
17333;DHT22;8784;50.94667800;7.08448400;2023-03-01T08:23:32;3.40;89.70
17333;DHT22;8784;50.94667800;7.08448400;2023-03-01T08:26:10;3.60;89.30
17333;DHT22;8784;50.94667800;7.08448400;2023-03-01T08:28:37;3.80;88.60
17333;DHT22;8784;50.94667800;7.08448400;2023-03-01T08:31:13;4.00;88.20
17333;DHT22;8784;50.94667800;7.08448400;2023-03-01T08:33:41;4.20;87.70
17333;DHT22;8784;50.94667800;7.08448400;2023-03-01T08:36:08;4.30;87.20
17333;DHT22;8784;50.94667800;7.08448400;2023-03-01T08:38:37;4.50;87.00
17333;DHT22;8784;50.94667800;7.08448400;2023-03-01T08:41:04;4.60;86.20
17333;DHT22;8784;50.94667800;7.08448400;2023-03-01T08:43:31;4.70;85.90
17333;DHT22;8784;50.94667800;7.08448400;2023-03-01T08:45:58;4.90;85.70
17333;DHT22;8784;50.94667800;7.08448400;2023-03-01T08:48:27;5.10;85.20
17333;DHT22;8784;50.94667800;7.08448400;2023-03-01T08:50:54;5.10;84.70
17333;DHT22;8784;50.94667800;7.08448400;2023-03-01T08:53:21;5.30;84.10
17333;DHT22;8784;50.94667800;7.08448400;2023-03-01T08:55:49;5.40;83.80
17333;DHT22;8784;50.94667800;7.08448400;2023-03-01T08:58:16;5.50;83.40
17333;DHT22;8784;50.94667800;7.08448400;2023-03-01T09:00:43;5.70;83.10
17333;DHT22;8784;50.94667800;7.08448400;2023-03-01T09:03:10;5.80;82.60
17333;DHT22;8784;50.94667800;7.08448400;2023-03-01T09:05:37;6.00;81.90
17333;DHT22;8784;50.94667800;7.08448400;2023-03-01T09:08:04;6.20;81.80
17333;DHT22;8784;50.94667800;7.08448400;2023-03-01T09:10:31;6.30;81.10
17333;DHT22;8784;50.94667800;7.08448400;2023-03-01T09:12:59;6.40;80.30
17333;DHT22;8784;50.94667800;7.08448400;2023-03-01T09:15:26;6.40;80.30
17333;DHT22;8784;50.94667800;7.08448400;2023-03-01T09:17:53;6.60;80.10
17333;DHT22;8784;50.94667800;7.08448400;2023-03-01T09:20:20;6.80;80.00
17333;DHT22;8784;50.94667800;7.08448400;2023-03-01T09:22:47;7.00;79.60
17333;DHT22;8784;50.94667800;7.08448400;2023-03-01T09:25:14;7.20;78.80
17333;DHT22;8784;50.94667800;7.08448400;2023-03-01T09:27:41;7.40;78.10
17333;DHT22;8784;50.94667800;7.08448400;2023-03-01T09:30:10;7.30;76.60
17333;DHT22;8784;50.94667800;7.08448400;2023-03-01T09:32:38;7.30;76.10
17333;DHT22;8784;50.94667800;7.08448400;2023-03-01T09:35:08;7.40;76.60
17333;DHT22;8784;50.94667800;7.08448400;2023-03-01T09:37:36;7.70;76.70
17333;DHT22;8784;50.94667800;7.08448400;2023-03-01T09:40:04;7.90;75.60
17333;DHT22;8784;50.94667800;7.08448400;2023-03-01T09:42:33;8.00;74.90
17333;DHT22;8784;50.94667800;7.08448400;2023-03-01T09:45:04;8.00;74.40
17333;DHT22;8784;50.94667800;7.08448400;2023-03-01T09:47:34;8.30;75.00
17333;DHT22;8784;50.94667800;7.08448400;2023-03-01T09:50:06;8.70;74.50
17333;DHT22;8784;50.94667800;7.08448400;2023-03-01T09:52:40;9.10;73.80
17333;DHT22;8784;50.94667800;7.08448400;2023-03-01T09:55:10;9.60;73.50
17333;DHT22;8784;50.94667800;7.08448400;2023-03-01T09:57:43;10.30;73.60
17333;DHT22;8784;50.94667800;7.08448400;2023-03-01T10:00:30;11.30;73.10
17333;DHT22;8784;50.94667800;7.08448400;2023-03-01T10:03:11;12.80;71.90
17333;DHT22;8784;50.94667800;7.08448400;2023-03-01T10:05:47;14.40;69.60
17333;DHT22;8784;50.94667800;7.08448400;2023-03-01T10:08:34;16.00;66.80
17333;DHT22;8784;50.94667800;7.08448400;2023-03-01T10:11:05;17.10;64.50
17333;DHT22;8784;50.94667800;7.08448400;2023-03-01T10:13:45;18.30;63.00
17333;DHT22;8784;50.94667800;7.08448400;2023-03-01T10:16:16;18.90;59.80
17333;DHT22;8784;50.94667800;7.08448400;2023-03-01T10:18:52;19.20;59.20
17333;DHT22;8784;50.94667800;7.08448400;2023-03-01T10:21:22;19.60;58.10
17333;DHT22;8784;50.94667800;7.08448400;2023-03-01T10:23:50;20.20;57.50
17333;DHT22;8784;50.94667800;7.08448400;2023-03-01T10:26:32;20.90;56.90
17333;DHT22;8784;50.94667800;7.08448400;2023-03-01T10:29:06;21.40;54.50
17333;DHT22;8784;50.94667800;7.08448400;2023-03-01T10:31:39;20.60;55.60
17333;DHT22;8784;50.94667800;7.08448400;2023-03-01T10:34:14;19.70;55.90
17333;DHT22;8784;50.94667800;7.08448400;2023-03-01T10:36:44;19.20;55.60
17333;DHT22;8784;50.94667800;7.08448400;2023-03-01T10:39:14;18.10;56.30
17333;DHT22;8784;50.94667800;7.08448400;2023-03-01T10:41:57;16.80;57.70
17333;DHT22;8784;50.94667800;7.08448400;2023-03-01T10:44:44;16.10;58.10
17333;DHT22;8784;50.94667800;7.08448400;2023-03-01T10:47:18;15.70;58.30
17333;DHT22;8784;50.94667800;7.08448400;2023-03-01T10:50:02;15.20;58.60
17333;DHT22;8784;50.94667800;7.08448400;2023-03-01T10:52:34;14.70;58.40
17333;DHT22;8784;50.94667800;7.08448400;2023-03-01T10:55:04;14.20;58.50
17333;DHT22;8784;50.94667800;7.08448400;2023-03-01T10:57:37;13.70;58.10
17333;DHT22;8784;50.94667800;7.08448400;2023-03-01T11:00:17;13.00;58.00
17333;DHT22;8784;50.94667800;7.08448400;2023-03-01T11:02:48;12.50;58.50
17333;DHT22;8784;50.94667800;7.08448400;2023-03-01T11:05:23;12.10;58.20
17333;DHT22;8784;50.94667800;7.08448400;2023-03-01T11:07:52;11.70;58.80
17333;DHT22;8784;50.94667800;7.08448400;2023-03-01T11:10:23;11.40;59.40
17333;DHT22;8784;50.94667800;7.08448400;2023-03-01T11:12:51;11.10;59.00
17333;DHT22;8784;50.94667800;7.08448400;2023-03-01T11:15:25;10.90;59.20
17333;DHT22;8784;50.94667800;7.08448400;2023-03-01T11:17:53;10.80;59.40
17333;DHT22;8784;50.94667800;7.08448400;2023-03-01T11:20:34;10.70;59.80
17333;DHT22;8784;50.94667800;7.08448400;2023-03-01T11:23:04;10.70;60.10
17333;DHT22;8784;50.94667800;7.08448400;2023-03-01T11:25:36;10.80;60.20
17333;DHT22;8784;50.94667800;7.08448400;2023-03-01T11:28:05;10.70;60.20
17333;DHT22;8784;50.94667800;7.08448400;2023-03-01T11:30:39;10.70;60.20
17333;DHT22;8784;50.94667800;7.08448400;2023-03-01T11:33:15;10.60;60.10
17333;DHT22;8784;50.94667800;7.08448400;2023-03-01T11:35:50;10.60;60.20
17333;DHT22;8784;50.94667800;7.08448400;2023-03-01T11:38:22;10.40;60.20
17333;DHT22;8784;50.94667800;7.08448400;2023-03-01T11:40:54;10.30;60.00
17333;DHT22;8784;50.94667800;7.08448400;2023-03-01T11:43:30;10.30;60.50
17333;DHT22;8784;50.94667800;7.08448400;2023-03-01T11:46:42;10.40;60.80
17333;DHT22;8784;50.94667800;7.08448400;2023-03-01T11:49:48;10.40;60.70
17333;DHT22;8784;50.94667800;7.08448400;2023-03-01T11:52:27;10.40;60.70
17333;DHT22;8784;50.94667800;7.08448400;2023-03-01T11:55:12;10.50;60.80
17333;DHT22;8784;50.94667800;7.08448400;2023-03-01T11:57:59;10.60;60.50
17333;DHT22;8784;50.94667800;7.08448400;2023-03-01T12:03:45;10.60;60.20
17333;DHT22;8784;50.94667800;7.08448400;2023-03-01T12:06:28;10.60;59.70
17333;DHT22;8784;50.94667800;7.08448400;2023-03-01T12:09:21;10.60;60.20
17333;DHT22;8784;50.94667800;7.08448400;2023-03-01T12:15:17;10.70;60.90
17333;DHT22;8784;50.94667800;7.08448400;2023-03-01T12:20:52;10.80;60.00
17333;DHT22;8784;50.94667800;7.08448400;2023-03-01T12:23:44;10.70;59.50
17333;DHT22;8784;50.94667800;7.08448400;2023-03-01T12:26:21;10.70;59.80
17333;DHT22;8784;50.94667800;7.08448400;2023-03-01T12:28:58;10.70;59.60
17333;DHT22;8784;50.94667800;7.08448400;2023-03-01T12:31:48;10.70;59.40
17333;DHT22;8784;50.94667800;7.08448400;2023-03-01T12:34:36;10.70;59.40
17333;DHT22;8784;50.94667800;7.08448400;2023-03-01T12:37:21;10.70;59.20
17333;DHT22;8784;50.94667800;7.08448400;2023-03-01T12:39:57;10.70;60.00
17333;DHT22;8784;50.94667800;7.08448400;2023-03-01T12:42:37;10.70;59.00
17333;DHT22;8784;50.94667800;7.08448400;2023-03-01T12:45:26;10.70;59.00
17333;DHT22;8784;50.94667800;7.08448400;2023-03-01T12:48:14;10.70;59.00
17333;DHT22;8784;50.94667800;7.08448400;2023-03-01T12:50:48;10.80;59.00
17333;DHT22;8784;50.94667800;7.08448400;2023-03-01T12:53:22;10.90;59.00
17333;DHT22;8784;50.94667800;7.08448400;2023-03-01T12:55:50;11.00;59.00
17333;DHT22;8784;50.94667800;7.08448400;2023-03-01T12:58:26;11.10;59.00
17333;DHT22;8784;50.94667800;7.08448400;2023-03-01T13:01:08;11.20;59.20
17333;DHT22;8784;50.94667800;7.08448400;2023-03-01T13:03:55;11.20;59.10
17333;DHT22;8784;50.94667800;7.08448400;2023-03-01T13:06:27;11.20;58.80
17333;DHT22;8784;50.94667800;7.08448400;2023-03-01T13:09:00;11.20;58.50
17333;DHT22;8784;50.94667800;7.08448400;2023-03-01T13:11:30;11.20;58.50
17333;DHT22;8784;50.94667800;7.08448400;2023-03-01T13:16:59;11.20;57.50
17333;DHT22;8784;50.94667800;7.08448400;2023-03-01T13:19:27;11.10;57.70
17333;DHT22;8784;50.94667800;7.08448400;2023-03-01T13:21:55;11.00;57.80
17333;DHT22;8784;50.94667800;7.08448400;2023-03-01T13:24:24;11.10;58.20
17333;DHT22;8784;50.94667800;7.08448400;2023-03-01T13:27:21;11.20;58.50
17333;DHT22;8784;50.94667800;7.08448400;2023-03-01T13:29:52;11.30;58.40
17333;DHT22;8784;50.94667800;7.08448400;2023-03-01T13:32:22;11.30;57.90
17333;DHT22;8784;50.94667800;7.08448400;2023-03-01T13:34:54;11.30;58.00
17333;DHT22;8784;50.94667800;7.08448400;2023-03-01T13:37:27;11.30;58.50
17333;DHT22;8784;50.94667800;7.08448400;2023-03-01T13:39:58;11.30;58.60
17333;DHT22;8784;50.94667800;7.08448400;2023-03-01T13:42:42;11.40;58.60
17333;DHT22;8784;50.94667800;7.08448400;2023-03-01T13:45:21;11.40;58.60
17333;DHT22;8784;50.94667800;7.08448400;2023-03-01T13:47:55;11.40;58.50
17333;DHT22;8784;50.94667800;7.08448400;2023-03-01T13:50:25;11.40;58.70
17333;DHT22;8784;50.94667800;7.08448400;2023-03-01T13:52:56;11.40;58.70
17333;DHT22;8784;50.94667800;7.08448400;2023-03-01T13:55:28;11.40;58.80
17333;DHT22;8784;50.94667800;7.08448400;2023-03-01T13:57:59;11.50;58.90
17333;DHT22;8784;50.94667800;7.08448400;2023-03-01T14:00:29;11.50;58.80
17333;DHT22;8784;50.94667800;7.08448400;2023-03-01T14:03:06;11.40;58.70
17333;DHT22;8784;50.94667800;7.08448400;2023-03-01T14:05:36;11.40;58.60
17333;DHT22;8784;50.94667800;7.08448400;2023-03-01T14:08:03;11.50;58.50
17333;DHT22;8784;50.94667800;7.08448400;2023-03-01T14:10:36;11.40;58.10